Time;durP1;ratioP1;P1;durP2;ratioP2;P2;SDS_P1;SDS_P2;PMS_P1;PMS_P2;Temp;Humidity;BMP_temperature;BMP_pressure;BME280_temperature;BME280_humidity;BME280_pressure;Samples;Min_cycle;Max_cycle;Signal;HPM_P1;HPM_P2
2022/01/20 00:03:35;;;;;;;19.40;3.80;;;7.50;99.90;;;;;;5009337;28;20202;-24
2022/01/20 00:08:54;;;;;;;18.33;3.47;;;7.40;99.90;;;;;;5009344;28;20216;-24
2022/01/20 00:28:29;;;;;;;19.30;3.63;;;7.10;99.90;;;;;;4983520;28;20205;-24
2022/01/20 00:31:12;;;;;;;14.37;3.57;;;7.10;99.90;;;;;;5006936;28;20217;-24
2022/01/20 00:33:50;;;;;;;14.07;3.03;;;7.00;99.90;;;;;;5005247;28;20700;-24
2022/01/20 00:39:05;;;;;;;13.57;2.93;;;7.00;99.90;;;;;;5000517;28;20212;-24
2022/01/20 00:41:35;;;;;;;17.13;3.53;;;7.00;99.90;;;;;;5008439;28;20589;-24
2022/01/20 00:44:02;;;;;;;21.80;3.37;;;7.00;99.90;;;;;;5007075;28;20711;-24
2022/01/20 00:46:29;;;;;;;18.97;3.30;;;7.00;99.90;;;;;;5009819;28;20752;-24
2022/01/20 00:48:57;;;;;;;14.97;3.60;;;6.90;99.90;;;;;;5008809;28;20197;-24
2022/01/20 00:51:26;;;;;;;15.97;3.33;;;6.90;99.90;;;;;;5008657;28;20633;-24
2022/01/20 00:53:55;;;;;;;17.23;3.30;;;6.90;99.90;;;;;;5007681;28;20201;-24
2022/01/20 00:56:22;;;;;;;15.00;3.00;;;6.80;99.90;;;;;;5008858;28;20198;-24
2022/01/20 00:58:50;;;;;;;19.93;3.27;;;6.80;99.90;;;;;;5008226;28;20210;-24
2022/01/20 01:01:17;;;;;;;13.40;3.40;;;6.80;99.90;;;;;;5023013;28;20247;-24
2022/01/20 01:08:23;;;;;;;17.47;3.27;;;6.80;99.90;;;;;;5000774;28;20572;-24
2022/01/20 01:10:51;;;;;;;15.53;3.37;;;6.70;99.90;;;;;;5005519;28;20221;-24
2022/01/20 01:13:23;;;;;;;13.37;2.93;;;6.70;99.90;;;;;;5007069;28;20964;-24
2022/01/20 01:15:53;;;;;;;11.13;2.90;;;6.70;99.90;;;;;;5006661;28;20673;-24
2022/01/20 01:21:30;;;;;;;14.07;2.83;;;6.70;99.90;;;;;;5007003;28;20672;-24
2022/01/20 01:23:57;;;;;;;12.03;2.40;;;6.70;99.90;;;;;;5005885;28;20300;-24
2022/01/20 01:26:27;;;;;;;16.73;3.20;;;6.70;99.90;;;;;;5007993;28;20328;-24
2022/01/20 01:29:00;;;;;;;13.80;3.03;;;6.80;99.90;;;;;;5007891;28;20213;-24
2022/01/20 01:31:38;;;;;;;12.30;2.83;;;6.80;99.90;;;;;;4996666;28;20236;-24
2022/01/20 01:34:10;;;;;;;15.33;3.37;;;6.80;99.90;;;;;;5005229;28;20630;-24
2022/01/20 01:39:24;;;;;;;12.10;3.20;;;6.80;99.90;;;;;;5005540;28;20348;-26
2022/01/20 01:41:51;;;;;;;15.50;3.17;;;6.80;99.90;;;;;;5006940;28;20206;-26
2022/01/20 01:44:24;;;;;;;11.27;2.73;;;6.80;99.90;;;;;;5007860;28;20194;-26
2022/01/20 01:46:52;;;;;;;12.93;2.63;;;6.80;99.90;;;;;;5007113;28;20241;-26
2022/01/20 01:49:21;;;;;;;16.23;2.30;;;6.80;99.90;;;;;;5006380;28;20198;-27
2022/01/20 01:51:48;;;;;;;12.00;2.50;;;6.80;99.90;;;;;;5006632;28;20604;-26
2022/01/20 01:54:18;;;;;;;10.43;2.27;;;6.80;99.90;;;;;;5008155;28;20711;-26
2022/01/20 01:56:48;;;;;;;12.13;2.33;;;6.80;99.90;;;;;;4995362;28;20676;-26
2022/01/20 01:59:19;;;;;;;11.70;2.40;;;6.90;99.90;;;;;;5004282;28;20193;-26
2022/01/20 02:01:48;;;;;;;10.20;2.30;;;6.90;99.90;;;;;;5011356;28;20212;-26
2022/01/20 02:04:21;;;;;;;12.40;2.30;;;6.90;99.90;;;;;;5006503;28;20194;-26
2022/01/20 02:20:42;;;;;;;10.73;1.97;;;7.00;99.90;;;;;;5007772;28;20537;-26
2022/01/20 02:23:14;;;;;;;11.37;2.83;;;7.00;99.90;;;;;;5007043;28;20210;-26
2022/01/20 02:25:41;;;;;;;11.47;2.50;;;7.00;99.90;;;;;;5005883;28;20223;-26
2022/01/20 02:28:13;;;;;;;12.73;2.40;;;7.00;99.90;;;;;;5006291;28;20535;-27
2022/01/20 02:30:45;;;;;;;10.13;2.77;;;7.00;99.90;;;;;;5024051;28;20629;-26
2022/01/20 02:33:20;;;;;;;8.00;2.40;;;7.00;99.90;;;;;;5012399;28;20221;-27
2022/01/20 02:35:53;;;;;;;8.53;2.57;;;7.00;99.90;;;;;;5041011;28;20691;-26
2022/01/20 02:46:26;;;;;;;13.23;3.07;;;7.00;99.90;;;;;;5011467;28;20683;-26
2022/01/20 02:48:54;;;;;;;11.03;2.83;;;7.00;99.90;;;;;;5011654;28;20308;-26
2022/01/20 02:51:24;;;;;;;8.97;2.93;;;7.00;99.90;;;;;;5004831;28;20247;-26
2022/01/20 02:53:52;;;;;;;15.53;3.07;;;7.00;99.90;;;;;;5011975;28;20612;-26
2022/01/20 02:56:22;;;;;;;13.57;3.60;;;7.00;99.90;;;;;;4998784;28;20202;-26
2022/01/20 02:58:49;;;;;;;13.37;3.17;;;7.00;99.90;;;;;;5006408;28;20209;-26
2022/01/20 03:01:22;;;;;;;11.93;3.13;;;7.00;99.90;;;;;;5009654;28;20190;-26
2022/01/20 03:03:49;;;;;;;12.67;2.80;;;7.00;99.90;;;;;;5005621;28;20202;-27
2022/01/20 03:06:17;;;;;;;13.30;3.10;;;7.00;99.90;;;;;;5008440;28;20226;-26
2022/01/20 03:08:44;;;;;;;13.47;3.53;;;7.00;99.90;;;;;;5001976;28;20308;-26
2022/01/20 03:11:16;;;;;;;13.80;2.83;;;7.00;99.90;;;;;;5005428;28;20198;-26
2022/01/20 03:13:43;;;;;;;13.60;3.17;;;7.00;99.90;;;;;;5008336;28;20227;-26
2022/01/20 03:16:13;;;;;;;9.33;2.60;;;7.00;99.90;;;;;;5006230;28;20209;-26
2022/01/20 03:18:40;;;;;;;13.20;2.80;;;7.00;99.90;;;;;;5010615;28;20202;-26
2022/01/20 03:21:07;;;;;;;13.37;3.30;;;7.00;99.90;;;;;;5006721;28;20205;-27
2022/01/20 03:23:35;;;;;;;10.00;3.00;;;7.00;99.90;;;;;;5024840;28;20222;-26
2022/01/20 03:26:02;;;;;;;10.37;2.73;;;7.00;99.90;;;;;;5007905;28;20221;-26
2022/01/20 03:28:30;;;;;;;11.40;3.37;;;7.10;99.90;;;;;;5010849;28;20201;-27
2022/01/20 03:30:59;;;;;;;13.30;2.27;;;7.10;99.90;;;;;;5010490;28;20217;-26
2022/01/20 03:33:29;;;;;;;10.57;2.77;;;7.10;99.90;;;;;;5010113;28;20597;-26
2022/01/20 03:36:01;;;;;;;9.93;2.63;;;7.10;99.90;;;;;;5009004;28;20216;-26
2022/01/20 03:38:30;;;;;;;9.33;2.40;;;7.10;99.90;;;;;;5007780;28;20577;-26
2022/01/20 03:40:58;;;;;;;7.03;2.03;;;7.10;99.90;;;;;;5010191;28;20217;-26
2022/01/20 03:43:30;;;;;;;7.90;2.33;;;7.10;99.90;;;;;;5024806;28;20694;-26
2022/01/20 03:46:01;;;;;;;8.33;2.40;;;7.10;99.90;;;;;;5004387;28;20293;-26
2022/01/20 03:48:37;;;;;;;8.43;2.37;;;7.10;99.90;;;;;;5008781;28;20779;-26
2022/01/20 03:51:05;;;;;;;7.40;2.40;;;7.10;99.90;;;;;;5022580;28;20284;-26
2022/01/20 03:53:38;;;;;;;6.57;2.53;;;7.10;99.90;;;;;;5009647;28;20225;-26
2022/01/20 03:56:06;;;;;;;7.90;2.23;;;7.10;99.90;;;;;;5004921;28;20206;-26
2022/01/20 03:58:34;;;;;;;8.13;2.00;;;7.10;99.90;;;;;;5009173;28;20217;-26
2022/01/20 04:01:01;;;;;;;3.27;1.90;;;7.10;99.90;;;;;;5005409;28;20558;-25
2022/01/20 04:03:28;;;;;;;6.73;2.07;;;7.10;99.90;;;;;;5009243;28;20671;-26
2022/01/20 04:06:00;;;;;;;7.30;1.77;;;7.10;99.90;;;;;;5006926;28;20209;-26
2022/01/20 04:08:32;;;;;;;5.67;1.70;;;7.10;99.90;;;;;;4997870;28;20216;-26
2022/01/20 04:11:02;;;;;;;5.93;1.50;;;7.10;99.90;;;;;;5009362;28;20206;-26
2022/01/20 04:13:35;;;;;;;8.47;1.67;;;7.00;99.90;;;;;;5008609;28;20221;-26
2022/01/20 04:16:40;;;;;;;7.80;1.50;;;7.00;99.90;;;;;;5024252;28;20627;-26
2022/01/20 04:19:11;;;;;;;6.67;1.30;;;7.00;99.90;;;;;;5007412;28;20250;-26
2022/01/20 04:21:44;;;;;;;4.23;1.40;;;7.00;99.90;;;;;;5022939;28;20197;-26
2022/01/20 04:24:15;;;;;;;7.37;1.70;;;7.00;99.90;;;;;;5005339;28;20244;-26
2022/01/20 04:26:44;;;;;;;4.77;1.23;;;6.90;99.90;;;;;;5009403;28;20218;-26
2022/01/20 04:29:16;;;;;;;5.60;1.70;;;6.90;99.90;;;;;;5004877;28;20239;-26
2022/01/20 04:31:46;;;;;;;9.83;2.20;;;6.90;99.90;;;;;;5032197;28;20206;-26
2022/01/20 04:34:16;;;;;;;7.03;1.70;;;6.90;99.90;;;;;;4996266;28;20226;-26
2022/01/20 04:36:46;;;;;;;7.67;1.73;;;6.90;99.90;;;;;;5009562;28;20554;-26
2022/01/20 04:39:21;;;;;;;7.97;1.93;;;6.90;99.90;;;;;;5008889;28;20193;-26
2022/01/20 04:41:52;;;;;;;6.73;2.00;;;6.90;99.90;;;;;;5006441;28;20232;-26
2022/01/20 04:47:47;;;;;;;4.60;1.73;;;6.80;99.90;;;;;;5007831;28;20217;-26
2022/01/20 04:58:38;;;;;;;8.10;1.40;;;6.90;99.90;;;;;;5005843;28;20201;-26
2022/01/20 05:01:08;;;;;;;2.63;1.33;;;6.90;99.90;;;;;;5007891;28;20694;-26
2022/01/20 05:03:36;;;;;;;3.93;1.33;;;6.90;99.90;;;;;;5009276;28;20214;-26
2022/01/20 05:06:03;;;;;;;8.17;1.50;;;6.90;99.90;;;;;;5006918;28;20233;-26
2022/01/20 05:08:33;;;;;;;9.13;1.50;;;6.90;99.90;;;;;;5007698;28;20575;-26
2022/01/20 05:11:02;;;;;;;3.50;1.00;;;6.80;99.90;;;;;;5008332;28;20232;-26
2022/01/20 05:13:37;;;;;;;5.23;1.30;;;6.80;99.90;;;;;;5005448;28;20708;-26
2022/01/20 05:16:07;;;;;;;4.47;1.20;;;6.80;99.90;;;;;;5009353;28;20205;-26
2022/01/20 05:18:39;;;;;;;3.00;1.13;;;6.80;99.90;;;;;;5004875;28;20672;-26
2022/01/20 05:21:11;;;;;;;3.13;0.80;;;6.80;99.90;;;;;;5013353;28;20659;-26
2022/01/20 05:23:39;;;;;;;3.43;0.80;;;6.80;99.90;;;;;;5002865;28;20220;-26
2022/01/20 05:26:09;;;;;;;4.87;1.20;;;6.80;99.90;;;;;;5006835;28;20225;-26
2022/01/20 05:28:39;;;;;;;7.13;1.30;;;6.80;99.90;;;;;;5005158;28;20568;-26
2022/01/20 05:31:06;;;;;;;8.57;1.27;;;6.80;99.90;;;;;;5008556;28;20206;-26
2022/01/20 05:33:34;;;;;;;6.60;1.27;;;6.80;99.90;;;;;;5005363;28;20287;-26
2022/01/20 05:36:02;;;;;;;5.77;1.23;;;6.80;99.90;;;;;;5022785;28;20562;-26
2022/01/20 05:38:29;;;;;;;4.67;1.20;;;6.80;99.90;;;;;;5002482;28;20206;-26
2022/01/20 05:40:56;;;;;;;4.57;1.17;;;6.80;99.90;;;;;;5008138;28;20751;-26
2022/01/20 05:43:25;;;;;;;4.83;1.53;;;6.80;99.90;;;;;;5006679;28;20201;-26
2022/01/20 05:45:52;;;;;;;6.97;1.40;;;6.70;99.90;;;;;;5006247;28;20209;-26
2022/01/20 05:48:32;;;;;;;9.63;2.23;;;6.70;99.90;;;;;;5005284;28;20715;-26
2022/01/20 05:51:00;;;;;;;4.97;1.23;;;6.70;99.90;;;;;;5004343;28;20233;-26
2022/01/20 05:53:32;;;;;;;7.00;1.80;;;6.70;99.90;;;;;;5006741;28;20229;-26
2022/01/20 05:55:59;;;;;;;5.83;1.53;;;6.70;99.90;;;;;;5004515;28;20328;-26
2022/01/20 05:58:27;;;;;;;5.63;1.30;;;6.70;99.90;;;;;;5025824;28;20202;-26
2022/01/20 06:00:54;;;;;;;6.00;1.67;;;6.70;99.90;;;;;;5001605;28;20313;-26
2022/01/20 06:03:36;;;;;;;7.10;1.90;;;6.70;99.90;;;;;;5000549;28;20204;-26
2022/01/20 06:06:11;;;;;;;7.30;2.00;;;6.70;99.90;;;;;;5000883;28;20237;-25
2022/01/20 06:08:43;;;;;;;12.23;2.37;;;6.70;99.90;;;;;;5004183;28;20260;-26
2022/01/20 06:11:13;;;;;;;11.30;2.37;;;6.70;99.90;;;;;;5000848;28;20779;-26
2022/01/20 06:13:43;;;;;;;12.97;2.23;;;6.70;99.90;;;;;;5001021;28;20218;-26
2022/01/20 06:16:13;;;;;;;12.83;2.90;;;6.80;99.90;;;;;;5001979;28;20550;-26
2022/01/20 06:18:45;;;;;;;9.20;2.60;;;6.80;99.90;;;;;;4999457;28;20214;-26
2022/01/20 06:21:12;;;;;;;12.13;3.47;;;6.80;99.90;;;;;;5003196;28;20209;-26
2022/01/20 06:23:40;;;;;;;10.77;2.60;;;6.80;99.90;;;;;;5002643;28;20214;-26
2022/01/20 06:26:12;;;;;;;8.57;2.87;;;6.80;99.90;;;;;;4999533;28;20197;-26
2022/01/20 06:28:43;;;;;;;7.60;2.10;;;6.80;99.90;;;;;;5018294;28;20204;-25
2022/01/20 06:31:13;;;;;;;10.57;2.90;;;6.80;99.90;;;;;;5003472;28;20210;-26
2022/01/20 06:33:40;;;;;;;12.87;2.50;;;6.80;99.90;;;;;;4998960;28;20739;-26
2022/01/20 06:36:13;;;;;;;9.23;2.30;;;6.80;99.90;;;;;;5015807;28;20202;-26
2022/01/20 06:38:43;;;;;;;7.17;2.63;;;6.80;99.90;;;;;;5003220;28;20216;-26
2022/01/20 06:41:13;;;;;;;9.17;3.63;;;6.80;99.90;;;;;;4999976;28;20695;-26
2022/01/20 06:43:42;;;;;;;7.00;2.50;;;6.80;99.90;;;;;;5005373;28;20197;-26
2022/01/20 06:46:12;;;;;;;10.97;2.90;;;6.80;99.90;;;;;;5001372;28;20516;-26
2022/01/20 06:48:39;;;;;;;9.17;2.60;;;6.80;99.90;;;;;;5002328;28;20213;-26
2022/01/20 06:51:11;;;;;;;9.13;2.60;;;6.80;99.90;;;;;;5036629;28;20237;-26
2022/01/20 06:53:38;;;;;;;10.07;2.80;;;6.80;99.90;;;;;;5019472;28;20225;-26
2022/01/20 06:56:05;;;;;;;14.03;2.97;;;6.80;99.90;;;;;;4999704;28;20198;-26
2022/01/20 06:58:52;;;;;;;14.40;2.70;;;6.80;99.90;;;;;;5005052;28;20197;-26
2022/01/20 07:01:21;;;;;;;11.87;2.60;;;6.80;99.90;;;;;;5004721;28;20656;-25
2022/01/20 07:03:53;;;;;;;10.63;2.97;;;6.70;99.90;;;;;;5001632;28;20204;-26
2022/01/20 07:06:22;;;;;;;8.90;2.70;;;6.80;99.90;;;;;;5020502;28;20200;-26
2022/01/20 07:08:50;;;;;;;9.03;2.80;;;6.70;99.90;;;;;;5005631;28;20225;-27
2022/01/20 07:11:17;;;;;;;8.27;2.90;;;6.70;99.90;;;;;;5003538;28;20206;-26
2022/01/20 07:13:44;;;;;;;12.47;2.90;;;6.70;99.90;;;;;;5020065;28;20789;-26
2022/01/20 07:16:15;;;;;;;9.77;2.67;;;6.70;99.90;;;;;;5009686;28;20198;-26
2022/01/20 07:18:43;;;;;;;9.17;2.60;;;6.70;99.90;;;;;;5010858;28;20228;-26
2022/01/20 07:21:10;;;;;;;10.73;2.30;;;6.70;99.90;;;;;;4997068;28;20218;-26
2022/01/20 07:23:39;;;;;;;7.40;2.30;;;6.70;99.90;;;;;;5008495;28;20209;-26
2022/01/20 07:26:11;;;;;;;10.87;2.30;;;6.70;99.90;;;;;;5007917;28;20241;-26
2022/01/20 07:28:38;;;;;;;9.23;2.40;;;6.70;99.90;;;;;;5007634;28;20230;-26
2022/01/20 07:31:08;;;;;;;10.90;2.53;;;6.70;99.90;;;;;;5008322;28;20210;-26
2022/01/20 07:33:38;;;;;;;9.07;2.37;;;6.70;99.90;;;;;;5008837;28;20225;-27
2022/01/20 07:36:08;;;;;;;10.00;2.13;;;6.70;99.90;;;;;;5009569;28;20221;-26
2022/01/20 07:38:35;;;;;;;9.37;2.27;;;6.70;99.90;;;;;;5004695;28;20201;-26
2022/01/20 07:41:02;;;;;;;15.70;2.37;;;6.70;99.90;;;;;;4995037;28;20194;-26
2022/01/20 07:43:32;;;;;;;11.50;2.00;;;6.70;99.90;;;;;;4996403;28;20213;-26
2022/01/20 07:46:02;;;;;;;11.57;2.20;;;6.70;99.90;;;;;;5009229;28;20194;-26
2022/01/20 07:48:29;;;;;;;11.50;2.37;;;6.70;99.90;;;;;;5008798;28;20672;-26
2022/01/20 07:50:56;;;;;;;7.87;2.33;;;6.60;99.90;;;;;;5005007;28;20244;-26
2022/01/20 07:53:26;;;;;;;7.57;2.30;;;6.60;99.90;;;;;;5005314;28;20317;-26
2022/01/20 07:55:53;;;;;;;7.67;1.90;;;6.70;99.90;;;;;;5008550;28;20240;-26
2022/01/20 07:58:21;;;;;;;10.10;2.30;;;6.70;99.90;;;;;;5006161;28;20583;-26
2022/01/20 08:00:50;;;;;;;7.03;2.00;;;6.70;99.90;;;;;;5008814;28;20260;-26
2022/01/20 08:03:20;;;;;;;11.27;3.43;;;6.70;99.90;;;;;;5006822;28;20194;-26
2022/01/20 08:05:47;;;;;;;9.30;2.50;;;6.70;99.90;;;;;;5005899;28;20202;-26
2022/01/20 08:08:19;;;;;;;13.13;2.40;;;6.70;99.90;;;;;;5007745;28;20767;-26
2022/01/20 08:10:47;;;;;;;10.60;2.37;;;6.70;99.90;;;;;;5020576;28;20248;-26
2022/01/20 08:13:14;;;;;;;11.53;2.53;;;6.70;99.90;;;;;;5007729;28;20205;-26
2022/01/20 08:15:46;;;;;;;13.73;2.70;;;6.70;99.90;;;;;;5006302;28;20225;-26
2022/01/20 08:18:14;;;;;;;9.60;2.20;;;6.70;99.90;;;;;;5039481;28;20256;-26
2022/01/20 08:20:41;;;;;;;8.73;2.43;;;6.70;99.90;;;;;;5009542;28;20700;-26
2022/01/20 08:23:08;;;;;;;11.73;2.03;;;6.70;99.90;;;;;;5005228;28;20228;-26
2022/01/20 08:25:38;;;;;;;9.43;2.07;;;6.70;99.90;;;;;;5004622;28;20209;-26
2022/01/20 08:28:05;;;;;;;9.90;2.30;;;6.70;99.90;;;;;;5004329;28;20229;-26
2022/01/20 08:30:38;;;;;;;12.80;2.30;;;6.70;99.90;;;;;;5008371;28;20256;-26
2022/01/20 08:33:06;;;;;;;9.07;2.10;;;6.70;99.90;;;;;;5008523;28;20205;-26
2022/01/20 08:35:33;;;;;;;13.07;2.33;;;6.70;99.90;;;;;;5000745;28;20232;-26
2022/01/20 08:38:03;;;;;;;8.37;1.70;;;6.70;99.90;;;;;;4999535;28;20217;-26
2022/01/20 08:40:33;;;;;;;11.80;2.13;;;6.70;99.90;;;;;;5001084;28;20295;-26
2022/01/20 08:43:03;;;;;;;8.93;2.73;;;6.80;99.90;;;;;;5001755;28;20576;-26
2022/01/20 08:45:35;;;;;;;9.97;2.03;;;6.80;99.90;;;;;;5008024;28;20209;-26
2022/01/20 08:48:03;;;;;;;11.27;2.00;;;6.80;99.90;;;;;;5008244;28;20217;-26
2022/01/20 08:50:34;;;;;;;9.37;2.57;;;6.80;99.90;;;;;;5006805;28;20620;-26
2022/01/20 08:53:02;;;;;;;9.20;2.20;;;6.80;99.90;;;;;;4986008;28;20316;-26
2022/01/20 08:55:31;;;;;;;10.73;2.30;;;6.80;99.90;;;;;;5006169;28;20233;-26
2022/01/20 08:57:59;;;;;;;10.53;2.27;;;6.80;99.90;;;;;;5007828;28;20328;-26
2022/01/20 09:00:31;;;;;;;12.07;2.73;;;6.80;99.90;;;;;;5004803;28;20233;-26
2022/01/20 09:02:59;;;;;;;14.30;2.80;;;6.80;99.90;;;;;;5023332;28;20255;-26
2022/01/20 09:05:27;;;;;;;15.97;2.80;;;6.80;99.90;;;;;;5000309;28;20231;-26
2022/01/20 09:07:54;;;;;;;11.80;2.70;;;6.80;99.90;;;;;;5001160;28;20205;-26
2022/01/20 09:10:22;;;;;;;12.17;2.33;;;6.90;99.90;;;;;;4999984;28;20205;-26
2022/01/20 09:15:28;;;;;;;10.17;2.50;;;6.90;99.90;;;;;;5002653;28;20232;-26
2022/01/20 09:18:08;;;;;;;13.43;2.50;;;6.90;99.90;;;;;;4997662;28;20208;-26
2022/01/20 09:20:39;;;;;;;14.90;2.83;;;6.90;99.90;;;;;;5004624;28;20223;-26
2022/01/20 09:23:08;;;;;;;9.23;2.37;;;6.90;99.90;;;;;;5007930;28;20201;-26
2022/01/20 09:25:39;;;;;;;14.40;2.67;;;6.90;99.90;;;;;;5007660;28;21016;-26
2022/01/20 09:28:07;;;;;;;10.80;2.80;;;6.90;99.90;;;;;;5005247;28;20202;-26
2022/01/20 09:30:37;;;;;;;13.43;3.37;;;6.90;99.90;;;;;;5007456;28;20205;-26
2022/01/20 09:35:38;;;;;;;13.77;3.00;;;7.00;99.90;;;;;;5006269;28;20319;-24
2022/01/20 09:38:09;;;;;;;15.27;2.90;;;7.00;99.90;;;;;;5009645;28;20203;-24
2022/01/20 09:40:41;;;;;;;12.40;2.60;;;7.00;99.90;;;;;;5007080;28;20207;-23
2022/01/20 09:43:11;;;;;;;13.80;2.70;;;7.00;99.90;;;;;;5039835;28;20688;-24
2022/01/20 09:45:39;;;;;;;14.90;2.57;;;7.00;99.90;;;;;;5023104;28;20632;-24
2022/01/20 09:48:09;;;;;;;14.97;2.67;;;6.90;99.90;;;;;;5005407;28;20205;-24
2022/01/20 09:50:39;;;;;;;14.80;2.70;;;6.90;99.90;;;;;;5000906;28;20265;-24
2022/01/20 09:53:08;;;;;;;12.10;2.60;;;6.90;99.90;;;;;;5008652;28;20210;-24
2022/01/20 09:55:36;;;;;;;13.03;3.13;;;7.00;99.90;;;;;;5007010;28;20687;-24
2022/01/20 09:58:05;;;;;;;11.47;2.80;;;6.90;99.90;;;;;;5006544;28;20205;-24
2022/01/20 10:00:38;;;;;;;11.40;2.50;;;6.90;99.90;;;;;;5020769;28;20206;-24
2022/01/20 10:03:17;;;;;;;11.47;2.70;;;7.00;99.90;;;;;;5008511;28;20288;-26
2022/01/20 10:05:47;;;;;;;11.90;2.60;;;7.00;99.90;;;;;;5004887;28;20296;-26
2022/01/20 10:08:18;;;;;;;15.97;2.93;;;7.00;99.90;;;;;;5006984;28;20905;-26
2022/01/20 10:10:52;;;;;;;11.50;2.93;;;7.10;99.90;;;;;;5006534;28;20206;-26
2022/01/20 10:13:27;;;;;;;12.00;3.03;;;7.10;99.90;;;;;;5008065;28;20245;-26
2022/01/20 10:16:07;;;;;;;13.57;2.63;;;7.10;99.90;;;;;;5007157;28;20807;-26
2022/01/20 10:18:49;;;;;;;12.20;3.03;;;7.20;99.90;;;;;;5007357;28;20228;-26
2022/01/20 10:21:27;;;;;;;17.90;3.43;;;7.20;99.90;;;;;;5006115;28;20618;-26
2022/01/20 10:24:03;;;;;;;12.53;2.90;;;7.20;99.90;;;;;;5008336;28;20217;-26
2022/01/20 10:26:33;;;;;;;17.10;3.90;;;7.30;99.90;;;;;;5006954;28;20592;-26
2022/01/20 10:29:10;;;;;;;10.10;2.53;;;7.30;99.90;;;;;;5006127;28;20197;-26
2022/01/20 10:31:51;;;;;;;11.37;2.63;;;7.30;99.90;;;;;;5006236;28;20670;-26
2022/01/20 10:34:30;;;;;;;15.43;3.83;;;7.30;99.90;;;;;;5004635;28;20605;-26
2022/01/20 10:37:04;;;;;;;15.20;3.10;;;7.30;99.90;;;;;;4998386;28;20260;-26
2022/01/20 10:39:49;;;;;;;13.17;2.93;;;7.30;99.90;;;;;;5003234;28;20197;-26
2022/01/20 10:42:23;;;;;;;11.87;3.30;;;7.30;99.90;;;;;;5008138;28;20213;-26
2022/01/20 10:44:53;;;;;;;9.00;3.03;;;7.30;99.90;;;;;;5007845;28;20236;-26
2022/01/20 10:47:25;;;;;;;14.20;3.50;;;7.30;99.90;;;;;;5010939;28;20214;-26
2022/01/20 10:50:08;;;;;;;15.50;2.80;;;7.30;99.90;;;;;;4999538;28;20436;-26
2022/01/20 10:52:40;;;;;;;13.27;2.50;;;7.30;99.90;;;;;;5004313;28;20715;-26
2022/01/20 10:55:30;;;;;;;11.33;2.53;;;7.30;99.90;;;;;;5005461;28;20411;-26
2022/01/20 10:58:12;;;;;;;10.53;2.10;;;7.30;99.90;;;;;;5007886;28;20217;-27
2022/01/20 11:00:49;;;;;;;6.83;1.93;;;7.30;99.90;;;;;;5010849;28;20206;-26
2022/01/20 11:03:18;;;;;;;12.23;2.30;;;7.20;99.90;;;;;;5011291;28;20209;-26
2022/01/20 11:05:50;;;;;;;11.23;2.00;;;7.20;99.90;;;;;;5009604;28;20313;-26
2022/01/20 11:08:18;;;;;;;10.23;1.80;;;7.20;99.90;;;;;;5007460;28;20209;-26
2022/01/20 11:10:46;;;;;;;11.77;2.13;;;7.20;99.90;;;;;;5007913;28;20282;-26
2022/01/20 11:13:19;;;;;;;6.83;1.60;;;7.10;99.90;;;;;;5015790;28;20688;-26
2022/01/20 11:15:50;;;;;;;10.53;1.90;;;7.10;99.90;;;;;;5010659;28;20642;-26
2022/01/20 11:18:18;;;;;;;8.00;1.97;;;7.10;99.90;;;;;;5010223;28;20284;-26
2022/01/20 11:20:51;;;;;;;8.83;1.87;;;7.10;99.90;;;;;;5007718;28;20198;-26
2022/01/20 11:23:21;;;;;;;7.67;1.57;;;7.10;99.90;;;;;;5008080;28;20297;-26
2022/01/20 11:25:48;;;;;;;7.67;1.60;;;7.10;99.90;;;;;;5001980;28;20304;-26
2022/01/20 11:28:20;;;;;;;5.57;1.57;;;7.10;99.90;;;;;;5010349;28;20199;-26
2022/01/20 11:31:06;;;;;;;8.40;1.27;;;7.10;99.90;;;;;;5003178;28;20743;-26
2022/01/20 11:33:44;;;;;;;11.63;2.60;;;7.10;99.90;;;;;;5007970;28;20210;-26
2022/01/20 11:36:26;;;;;;;7.70;2.63;;;7.10;99.90;;;;;;5009629;28;20224;-26
2022/01/20 11:39:17;;;;;;;9.80;1.97;;;7.10;99.90;;;;;;5018785;28;20209;-26
2022/01/20 11:41:47;;;;;;;17.00;2.20;;;7.20;99.90;;;;;;5008639;28;20209;-26
2022/01/20 11:44:20;;;;;;;10.70;2.97;;;7.20;99.90;;;;;;5010339;28;20304;-26
2022/01/20 11:46:53;;;;;;;14.10;2.53;;;7.20;99.90;;;;;;5006722;28;20206;-26
2022/01/20 11:49:22;;;;;;;10.13;2.67;;;7.20;99.90;;;;;;5008795;28;20216;-26
2022/01/20 11:51:49;;;;;;;10.50;2.13;;;7.20;99.90;;;;;;5015474;28;20235;-26
2022/01/20 11:54:33;;;;;;;8.67;1.83;;;7.20;99.90;;;;;;5010422;28;20198;-26
2022/01/20 11:57:10;;;;;;;12.97;2.23;;;7.20;99.90;;;;;;5028667;28;20208;-26
2022/01/20 11:59:46;;;;;;;14.23;2.80;;;7.20;99.90;;;;;;5008359;28;20204;-26
2022/01/20 12:02:24;;;;;;;7.10;2.10;;;7.20;99.90;;;;;;5056948;28;20201;-26
2022/01/20 12:04:52;;;;;;;10.53;2.40;;;7.30;99.90;;;;;;5025102;28;20680;-26
2022/01/20 12:07:30;;;;;;;7.57;1.80;;;7.30;99.90;;;;;;5010542;28;20237;-26
2022/01/20 12:10:12;;;;;;;10.07;2.40;;;7.30;99.90;;;;;;5029953;28;20214;-26
2022/01/20 12:12:43;;;;;;;12.33;2.67;;;7.30;99.90;;;;;;5012743;28;20209;-26
2022/01/20 12:15:16;;;;;;;11.67;2.30;;;7.30;99.90;;;;;;5024710;28;20217;-26
2022/01/20 12:17:55;;;;;;;12.37;2.30;;;7.30;99.90;;;;;;5011915;28;20563;-25
2022/01/20 12:20:24;;;;;;;12.63;2.73;;;7.30;99.90;;;;;;5011305;28;20197;-25
2022/01/20 12:22:54;;;;;;;11.63;2.30;;;7.20;99.90;;;;;;5012449;28;20201;-26
2022/01/20 12:25:29;;;;;;;12.57;1.90;;;7.20;99.90;;;;;;5028777;28;20201;-25
2022/01/20 12:28:11;;;;;;;13.40;1.93;;;7.20;99.90;;;;;;5015546;28;20246;-26
2022/01/20 12:30:47;;;;;;;9.20;1.90;;;7.20;99.90;;;;;;5006139;28;20209;-26
2022/01/20 12:33:22;;;;;;;12.97;2.07;;;7.10;99.90;;;;;;5023276;28;20204;-26
2022/01/20 12:35:52;;;;;;;9.37;1.80;;;7.10;99.90;;;;;;5010846;28;20316;-26
2022/01/20 12:38:26;;;;;;;8.10;1.67;;;7.10;99.90;;;;;;5008809;28;20200;-26
2022/01/20 12:41:10;;;;;;;13.37;2.30;;;7.10;99.90;;;;;;5010875;28;20719;-26
2022/01/20 12:44:05;;;;;;;9.83;2.17;;;7.10;99.90;;;;;;5012594;28;20232;-26
2022/01/20 12:46:36;;;;;;;9.40;2.50;;;7.10;99.90;;;;;;5008577;28;20271;-26
2022/01/20 12:49:19;;;;;;;8.83;1.80;;;7.00;99.90;;;;;;5009065;28;20244;-26
2022/01/20 12:51:55;;;;;;;9.67;1.50;;;7.00;99.90;;;;;;5008293;28;20444;-26
2022/01/20 12:54:33;;;;;;;7.87;1.80;;;7.00;99.90;;;;;;5023014;28;20219;-26
2022/01/20 12:57:09;;;;;;;11.63;2.20;;;7.00;99.90;;;;;;5008022;28;20202;-26
2022/01/20 12:59:42;;;;;;;10.43;1.70;;;7.00;99.90;;;;;;5006627;28;20198;-26
2022/01/20 13:02:23;;;;;;;9.33;1.80;;;7.00;99.90;;;;;;5007710;28;20572;-26
2022/01/20 13:05:00;;;;;;;12.20;2.03;;;7.00;99.90;;;;;;5007382;28;20747;-26
2022/01/20 13:07:33;;;;;;;10.77;1.90;;;7.10;99.90;;;;;;5003523;28;20194;-26
2022/01/20 13:10:32;;;;;;;12.07;1.80;;;7.10;99.90;;;;;;5006028;28;20237;-26
2022/01/20 13:13:05;;;;;;;8.03;1.93;;;7.10;99.90;;;;;;5007429;28;20202;-26
2022/01/20 13:15:38;;;;;;;10.10;1.57;;;7.20;99.90;;;;;;5004057;28;20221;-26
2022/01/20 13:18:12;;;;;;;8.50;1.80;;;7.20;99.90;;;;;;5004625;28;20222;-26
2022/01/20 13:20:55;;;;;;;8.73;1.90;;;7.30;99.90;;;;;;5005454;28;20196;-26
2022/01/20 13:26:06;;;;;;;8.10;2.60;;;7.30;99.90;;;;;;5005250;28;20240;-26
2022/01/20 13:28:34;;;;;;;8.03;1.87;;;7.40;99.90;;;;;;5006544;28;20225;-26
2022/01/20 13:31:17;;;;;;;9.37;1.83;;;7.40;99.90;;;;;;5005302;28;20655;-26
2022/01/20 13:33:46;;;;;;;7.53;2.07;;;7.40;99.90;;;;;;5004842;28;20305;-25
2022/01/20 13:36:13;;;;;;;14.33;2.33;;;7.40;99.90;;;;;;5003012;28;20232;-26
2022/01/20 13:38:47;;;;;;;8.33;1.80;;;7.40;99.90;;;;;;5006204;28;20513;-26
2022/01/20 13:41:29;;;;;;;11.53;2.20;;;7.50;99.90;;;;;;5004003;28;20272;-26
2022/01/20 13:47:00;;;;;;;16.07;3.10;;;7.50;99.90;;;;;;5005960;28;20265;-26
2022/01/20 13:49:27;;;;;;;11.70;3.20;;;7.50;99.90;;;;;;4999531;28;20672;-26
2022/01/20 13:52:03;;;;;;;11.03;2.37;;;7.50;99.90;;;;;;5007048;28;20712;-26
2022/01/20 13:54:42;;;;;;;10.97;2.40;;;7.60;99.90;;;;;;5005863;28;20692;-26
2022/01/20 13:57:37;;;;;;;13.33;2.40;;;7.60;99.90;;;;;;5004708;28;20222;-26
2022/01/20 14:00:10;;;;;;;8.73;1.90;;;7.50;99.90;;;;;;5003455;28;20243;-26
2022/01/20 14:02:38;;;;;;;11.07;2.27;;;7.50;99.90;;;;;;5006104;28;20829;-26
2022/01/20 14:05:06;;;;;;;11.33;2.13;;;7.50;99.90;;;;;;5006485;28;20245;-26
2022/01/20 14:07:34;;;;;;;11.90;2.23;;;7.50;99.90;;;;;;5006972;28;20530;-26
2022/01/20 14:10:04;;;;;;;9.67;2.40;;;7.50;99.90;;;;;;5006592;28;20217;-27
2022/01/20 14:12:31;;;;;;;12.80;2.50;;;7.50;99.90;;;;;;5003241;28;20209;-26
2022/01/20 14:15:01;;;;;;;15.03;2.37;;;7.50;99.90;;;;;;5006985;28;20201;-26
2022/01/20 14:17:34;;;;;;;9.83;2.27;;;7.50;99.90;;;;;;5004317;28;20213;-26
2022/01/20 14:20:07;;;;;;;9.47;1.77;;;7.50;99.90;;;;;;4997846;28;20307;-26
2022/01/20 14:22:35;;;;;;;10.27;2.23;;;7.40;99.90;;;;;;5006296;28;20210;-26
2022/01/20 14:25:05;;;;;;;9.23;1.80;;;7.40;99.90;;;;;;5010858;28;20201;-26
2022/01/20 14:27:33;;;;;;;7.80;1.60;;;7.40;99.90;;;;;;5006492;28;20460;-26
2022/01/20 14:30:02;;;;;;;9.30;2.30;;;7.40;99.90;;;;;;5012881;28;20648;-26
2022/01/20 14:32:29;;;;;;;9.67;2.27;;;7.40;99.90;;;;;;5003429;28;20255;-26